createdAt,value
2023-04-24T00:01:05.209Z,2.33
2023-04-24T00:03:34.092Z,1.90
2023-04-24T00:06:01.901Z,1.70
2023-04-24T00:08:29.101Z,1.57
2023-04-24T00:10:56.426Z,1.77
2023-04-24T00:13:24.038Z,1.80
2023-04-24T00:15:51.418Z,2.00
2023-04-24T00:18:18.953Z,1.53
2023-04-24T00:20:46.305Z,1.63
2023-04-24T00:23:13.512Z,1.50
2023-04-24T00:25:41.027Z,1.60
2023-04-24T00:28:08.253Z,1.70
2023-04-24T00:30:35.613Z,1.70
2023-04-24T00:33:02.913Z,1.70
2023-04-24T00:35:30.022Z,1.43
2023-04-24T00:37:57.361Z,1.37
2023-04-24T00:40:24.514Z,1.30
2023-04-24T00:42:51.770Z,1.50
2023-04-24T00:45:18.915Z,1.70
2023-04-24T00:47:47.225Z,1.73
2023-04-24T00:50:16.100Z,1.20
2023-04-24T00:52:43.431Z,1.33
2023-04-24T00:55:11.425Z,1.63
2023-04-24T00:57:39.111Z,1.47
2023-04-24T01:00:08.928Z,1.50
2023-04-24T01:02:36.140Z,1.70
2023-04-24T01:05:04.627Z,1.10
2023-04-24T01:07:31.883Z,1.50
2023-04-24T01:09:59.103Z,1.30
2023-04-24T01:12:26.276Z,1.47
2023-04-24T01:14:53.433Z,1.50
2023-04-24T01:17:20.624Z,1.20
2023-04-24T01:19:47.735Z,1.07
2023-04-24T01:22:18.305Z,1.63
2023-04-24T01:24:45.513Z,1.60
2023-04-24T01:27:13.466Z,1.40
2023-04-24T01:29:40.770Z,1.70
2023-04-24T01:32:08.348Z,1.37
2023-04-24T01:34:36.010Z,1.60
2023-04-24T01:37:03.228Z,1.30
2023-04-24T01:39:30.391Z,1.50
2023-04-24T01:41:58.364Z,1.30
2023-04-24T01:44:27.026Z,1.50
2023-04-24T01:46:55.072Z,1.60
2023-04-24T01:49:22.351Z,1.10
2023-04-24T01:51:49.702Z,1.70
2023-04-24T01:54:16.806Z,1.60
2023-04-24T01:56:44.563Z,1.47
2023-04-24T01:59:14.428Z,1.60
2023-04-24T02:01:41.670Z,1.53
2023-04-24T02:04:10.463Z,1.70
2023-04-24T02:06:38.185Z,1.80
2023-04-24T02:09:05.297Z,2.00
2023-04-24T02:11:32.607Z,2.00
2023-04-24T02:13:59.729Z,1.87
2023-04-24T02:16:26.992Z,1.60
2023-04-24T02:18:54.131Z,1.90
2023-04-24T02:21:21.246Z,2.50
2023-04-24T02:23:48.383Z,2.10
2023-04-24T02:26:16.100Z,2.67
2023-04-24T02:28:43.193Z,2.47
2023-04-24T02:31:10.652Z,2.30
2023-04-24T02:33:37.817Z,2.87
2023-04-24T02:36:05.067Z,2.80
2023-04-24T02:38:32.205Z,2.60
2023-04-24T02:40:59.259Z,2.50
2023-04-24T02:43:26.536Z,2.63
2023-04-24T02:45:53.713Z,2.70
2023-04-24T02:48:21.897Z,2.73
2023-04-24T02:50:48.961Z,2.63
2023-04-24T02:53:16.319Z,2.83
2023-04-24T02:55:43.450Z,2.83
2023-04-24T02:58:11.770Z,2.90
2023-04-24T03:00:38.911Z,3.33
2023-04-24T03:03:06.622Z,3.00
2023-04-24T03:05:34.092Z,3.30
2023-04-24T03:08:01.498Z,3.90
2023-04-24T03:10:28.546Z,3.33
2023-04-24T03:12:56.058Z,4.43
2023-04-24T03:15:23.826Z,4.53
2023-04-24T03:17:50.910Z,4.20
2023-04-24T03:20:18.044Z,5.10
2023-04-24T03:22:45.318Z,5.60
2023-04-24T03:25:12.372Z,5.07
2023-04-24T03:27:40.268Z,5.33
2023-04-24T03:30:11.243Z,4.93
2023-04-24T03:32:40.426Z,5.07
2023-04-24T03:35:09.406Z,5.80
2023-04-24T03:37:36.610Z,5.90
2023-04-24T03:40:04.342Z,6.33
2023-04-24T03:42:31.812Z,7.23
2023-04-24T03:44:58.931Z,6.57
2023-04-24T03:47:26.068Z,7.30
2023-04-24T03:49:53.284Z,8.27
2023-04-24T03:52:20.395Z,8.20
2023-04-24T03:54:47.598Z,8.47
2023-04-24T03:57:14.686Z,8.13
2023-04-24T03:59:42.012Z,8.53
2023-04-24T04:02:09.386Z,8.70
2023-04-24T04:04:36.896Z,9.23
2023-04-24T04:07:04.217Z,8.77
2023-04-24T04:09:31.460Z,8.93
2023-04-24T04:11:58.605Z,8.83
2023-04-24T04:14:25.735Z,9.83
2023-04-24T04:16:54.823Z,8.87
2023-04-24T04:19:22.306Z,9.70
2023-04-24T04:21:54.094Z,10.43
2023-04-24T04:24:25.220Z,10.83
2023-04-24T04:26:53.141Z,10.73
2023-04-24T04:29:20.313Z,11.17
2023-04-24T04:31:47.508Z,11.20
2023-04-24T04:34:15.123Z,11.37
2023-04-24T04:36:44.106Z,12.03
2023-04-24T04:39:11.189Z,11.17
2023-04-24T04:41:41.306Z,11.60
2023-04-24T04:44:10.742Z,12.43
2023-04-24T04:46:38.391Z,11.87
2023-04-24T04:49:05.665Z,12.10
2023-04-24T04:51:32.938Z,13.87
2023-04-24T04:54:00.126Z,14.00
2023-04-24T04:56:27.975Z,13.23
2023-04-24T04:58:55.131Z,13.83
2023-04-24T05:01:24.113Z,15.23
2023-04-24T05:03:51.555Z,16.53
2023-04-24T05:06:18.970Z,15.23
2023-04-24T05:08:46.024Z,16.63
2023-04-24T05:11:13.198Z,16.07
2023-04-24T05:13:41.356Z,16.17
2023-04-24T05:16:08.718Z,15.43
2023-04-24T05:18:35.894Z,16.90
2023-04-24T05:21:03.011Z,17.17
2023-04-24T05:23:30.199Z,15.87
2023-04-24T05:25:57.348Z,17.30
2023-04-24T05:28:24.551Z,16.90
2023-04-24T05:30:51.807Z,16.80
2023-04-24T05:33:19.030Z,17.40
2023-04-24T05:35:47.771Z,16.23
2023-04-24T05:38:15.971Z,17.67
2023-04-24T05:40:43.137Z,15.80
2023-04-24T05:43:10.471Z,17.30
2023-04-24T05:45:37.632Z,15.33
2023-04-24T05:48:05.024Z,16.63
2023-04-24T05:50:32.340Z,15.40
2023-04-24T05:53:00.311Z,15.97
2023-04-24T05:55:27.417Z,15.20
2023-04-24T05:57:54.612Z,15.00
2023-04-24T06:00:21.775Z,15.53
2023-04-24T06:02:49.328Z,14.83
2023-04-24T06:05:17.049Z,14.07
2023-04-24T06:07:44.226Z,14.23
2023-04-24T06:10:11.583Z,13.53
2023-04-24T06:12:38.635Z,15.13
2023-04-24T06:15:05.966Z,13.20
2023-04-24T06:17:33.492Z,14.07
2023-04-24T06:20:00.753Z,13.20
2023-04-24T06:22:27.850Z,14.10
2023-04-24T06:24:55.047Z,13.83
2023-04-24T06:27:22.096Z,13.83
2023-04-24T06:29:55.345Z,13.37
2023-04-24T06:32:25.987Z,11.97
2023-04-24T06:34:53.905Z,12.47
2023-04-24T06:37:22.181Z,12.30
2023-04-24T06:39:49.247Z,11.00
2023-04-24T06:42:16.659Z,11.77
2023-04-24T06:44:43.835Z,11.77
2023-04-24T06:47:16.907Z,11.87
2023-04-24T06:49:44.298Z,12.10
2023-04-24T06:52:11.780Z,11.63
2023-04-24T06:54:39.147Z,11.87
2023-04-24T06:57:06.230Z,11.20
2023-04-24T06:59:33.258Z,11.77
2023-04-24T07:02:00.416Z,11.83
2023-04-24T07:04:27.726Z,11.37
2023-04-24T07:06:58.898Z,10.70
2023-04-24T07:09:26.945Z,10.57
2023-04-24T07:11:54.768Z,11.17
2023-04-24T07:14:22.446Z,10.40
2023-04-24T07:16:49.695Z,11.60
2023-04-24T07:19:16.802Z,10.67
2023-04-24T07:21:43.919Z,10.60
2023-04-24T07:24:11.787Z,10.97
2023-04-24T07:26:39.835Z,10.10
2023-04-24T07:29:06.977Z,10.87
2023-04-24T07:31:34.136Z,9.87
2023-04-24T07:34:01.207Z,9.87
2023-04-24T07:36:29.095Z,10.23
2023-04-24T07:38:57.615Z,9.53
2023-04-24T07:41:27.785Z,9.17
2023-04-24T07:43:54.944Z,9.70
2023-04-24T07:46:22.393Z,7.77
2023-04-24T07:48:55.781Z,7.73
2023-04-24T07:51:33.584Z,7.73
2023-04-24T07:54:02.076Z,7.83
2023-04-24T07:56:32.218Z,7.50
2023-04-24T07:58:59.549Z,7.93
2023-04-24T08:01:26.704Z,8.20
2023-04-24T08:03:54.163Z,8.03
2023-04-24T08:06:21.614Z,7.53
2023-04-24T08:08:48.808Z,7.03
2023-04-24T08:11:15.915Z,6.40
2023-04-24T08:13:43.298Z,6.40
2023-04-24T08:16:10.675Z,6.00
2023-04-24T08:18:37.826Z,5.93
2023-04-24T08:21:05.034Z,6.33
2023-04-24T08:23:32.386Z,5.70
2023-04-24T08:25:59.553Z,5.97
2023-04-24T08:28:26.862Z,5.37
2023-04-24T08:30:55.678Z,6.40
2023-04-24T08:33:26.039Z,6.17
2023-04-24T08:35:53.174Z,5.53
2023-04-24T08:38:20.436Z,6.37
2023-04-24T08:40:50.521Z,5.70
2023-04-24T08:43:18.173Z,5.77
2023-04-24T08:45:45.496Z,6.03
2023-04-24T08:48:23.464Z,5.30
2023-04-24T08:50:58.309Z,5.67
2023-04-24T08:53:26.827Z,5.67
2023-04-24T08:55:56.343Z,5.13
2023-04-24T08:58:24.812Z,5.60
2023-04-24T09:00:51.974Z,4.47
2023-04-24T09:03:19.682Z,4.67
2023-04-24T09:05:48.605Z,5.13
2023-04-24T09:08:16.041Z,4.93
2023-04-24T09:10:43.323Z,4.40
2023-04-24T09:13:11.236Z,4.47
2023-04-24T09:15:38.839Z,4.70
2023-04-24T09:18:06.395Z,4.13
2023-04-24T09:20:33.948Z,3.87
2023-04-24T09:23:01.271Z,4.10
2023-04-24T09:25:35.021Z,4.37
2023-04-24T09:28:07.479Z,4.60
2023-04-24T09:30:34.591Z,4.50
2023-04-24T09:33:17.082Z,4.90
2023-04-24T09:35:53.738Z,4.97
2023-04-24T09:38:22.090Z,4.20
2023-04-24T09:40:49.194Z,4.37
2023-04-24T09:43:16.258Z,4.10
2023-04-24T09:45:43.376Z,4.13
2023-04-24T09:48:13.471Z,4.27
2023-04-24T09:50:41.196Z,4.57
2023-04-24T09:53:10.032Z,4.13
2023-04-24T09:55:41.958Z,4.30
2023-04-24T09:58:09.619Z,3.70
2023-04-24T10:00:36.980Z,3.90
2023-04-24T10:03:05.595Z,4.10
2023-04-24T10:05:33.852Z,4.27
2023-04-24T10:08:05.839Z,3.97
2023-04-24T10:10:34.099Z,4.40
2023-04-24T10:13:01.933Z,4.03
2023-04-24T10:15:29.623Z,4.17
2023-04-24T10:17:59.326Z,4.10
2023-04-24T10:20:27.875Z,4.20
2023-04-24T10:22:55.793Z,3.90
2023-04-24T10:25:24.360Z,4.10
2023-04-24T10:27:52.108Z,4.20
2023-04-24T10:30:20.276Z,4.10
2023-04-24T10:32:47.615Z,4.40
2023-04-24T10:35:15.891Z,5.00
2023-04-24T10:37:54.313Z,3.93
2023-04-24T10:40:27.955Z,4.30
2023-04-24T10:42:57.452Z,4.07
2023-04-24T10:45:26.034Z,4.17
2023-04-24T10:48:05.964Z,4.87
2023-04-24T10:50:59.640Z,5.30
2023-04-24T10:53:29.594Z,6.00
2023-04-24T10:56:06.944Z,6.27
2023-04-24T10:58:53.389Z,5.50
2023-04-24T11:01:27.697Z,5.53
2023-04-24T11:03:59.270Z,4.67
2023-04-24T11:06:37.005Z,4.07
2023-04-24T11:09:08.710Z,5.27
2023-04-24T11:11:36.903Z,5.03
2023-04-24T11:14:05.546Z,5.53
2023-04-24T11:16:34.706Z,5.73
2023-04-24T11:19:12.238Z,5.43
2023-04-24T11:21:46.741Z,5.67
2023-04-24T11:24:26.481Z,6.07
2023-04-24T11:26:55.585Z,6.23
2023-04-24T11:29:24.516Z,6.23
2023-04-24T11:31:52.684Z,5.97
2023-04-24T11:34:20.242Z,5.67
2023-04-24T11:36:48.687Z,6.30
2023-04-24T11:39:16.288Z,6.57
2023-04-24T11:41:43.508Z,6.67
2023-04-24T11:44:12.505Z,5.73
2023-04-24T11:46:41.233Z,5.07
2023-04-24T11:49:08.635Z,4.73
2023-04-24T11:51:47.849Z,4.80
2023-04-24T11:54:18.414Z,4.47
2023-04-24T11:56:49.328Z,4.17
2023-04-24T11:59:16.608Z,3.50
2023-04-24T12:01:47.646Z,4.77
2023-04-24T12:04:15.297Z,4.43
2023-04-24T12:07:00.782Z,3.53
2023-04-24T12:09:28.090Z,3.97
2023-04-24T12:11:57.923Z,3.90
2023-04-24T12:14:25.395Z,4.33
2023-04-24T12:16:52.679Z,4.93
2023-04-24T12:19:23.900Z,4.20
2023-04-24T12:22:04.708Z,4.73
2023-04-24T12:24:31.895Z,6.07
2023-04-24T12:26:59.687Z,4.53
2023-04-24T12:29:26.860Z,5.50
2023-04-24T12:31:54.036Z,5.53
2023-04-24T12:34:21.542Z,5.83
2023-04-24T12:36:49.123Z,6.00
2023-04-24T12:39:17.771Z,5.70
2023-04-24T12:41:57.088Z,5.93
2023-04-24T12:44:35.331Z,6.20
2023-04-24T12:47:03.102Z,6.33
2023-04-24T12:49:31.818Z,6.13
2023-04-24T12:51:59.063Z,6.00
2023-04-24T12:54:26.479Z,6.40
2023-04-24T12:56:53.801Z,5.97
2023-04-24T12:59:20.879Z,5.10
2023-04-24T13:01:48.114Z,5.77
2023-04-24T13:04:15.463Z,5.20
2023-04-24T13:06:42.585Z,5.43
2023-04-24T13:09:10.828Z,5.10
2023-04-24T13:11:37.895Z,4.80
2023-04-24T13:14:05.043Z,5.00
2023-04-24T13:16:32.224Z,4.87
2023-04-24T13:18:59.394Z,4.87
2023-04-24T13:21:27.314Z,4.53
2023-04-24T13:23:55.364Z,4.47
2023-04-24T13:26:22.532Z,4.87
2023-04-24T13:28:50.275Z,4.37
2023-04-24T13:31:17.896Z,4.10
2023-04-24T13:33:45.238Z,4.47
2023-04-24T13:36:12.690Z,4.43
2023-04-24T13:38:39.777Z,5.33
2023-04-24T13:41:06.882Z,4.77
2023-04-24T13:43:33.958Z,4.10
2023-04-24T13:46:03.762Z,3.80
2023-04-24T13:48:31.702Z,5.03
2023-04-24T13:50:58.788Z,9.93
2023-04-24T13:53:25.943Z,5.40
2023-04-24T13:55:53.054Z,3.70
2023-04-24T13:58:20.403Z,3.67
2023-04-24T14:00:47.524Z,3.23
2023-04-24T14:03:14.894Z,2.80
2023-04-24T14:05:42.578Z,2.80
2023-04-24T14:08:09.831Z,3.07
2023-04-24T14:10:37.422Z,3.30
2023-04-24T14:13:04.868Z,2.73
2023-04-24T14:15:32.095Z,3.00
2023-04-24T14:17:59.643Z,3.53
2023-04-24T14:20:26.856Z,2.40
2023-04-24T14:22:54.633Z,2.50
2023-04-24T14:25:23.497Z,2.10
2023-04-24T14:27:51.742Z,2.20
2023-04-24T14:30:19.602Z,2.00
2023-04-24T14:32:47.245Z,1.87
2023-04-24T14:35:15.582Z,2.27
2023-04-24T14:37:43.668Z,1.97
2023-04-24T14:40:21.060Z,1.60
2023-04-24T14:42:58.230Z,1.90
2023-04-24T14:45:25.963Z,2.00
2023-04-24T14:47:53.329Z,2.00
2023-04-24T14:50:22.945Z,1.90
2023-04-24T14:52:51.650Z,1.90
2023-04-24T14:55:18.930Z,2.30
2023-04-24T14:57:46.038Z,2.30
2023-04-24T15:00:13.378Z,2.10
2023-04-24T15:02:43.041Z,2.13
2023-04-24T15:05:10.781Z,2.33
2023-04-24T15:07:38.929Z,2.37
2023-04-24T15:10:06.605Z,2.10
2023-04-24T15:12:33.829Z,2.10
2023-04-24T15:15:01.014Z,2.40
2023-04-24T15:17:31.250Z,3.00
2023-04-24T15:19:58.463Z,2.47
2023-04-24T15:22:25.594Z,2.80
2023-04-24T15:24:52.643Z,2.43
2023-04-24T15:27:19.776Z,2.73
2023-04-24T15:29:46.857Z,2.87
2023-04-24T15:32:13.990Z,3.83
2023-04-24T15:34:41.265Z,3.10
2023-04-24T15:37:08.774Z,3.10
2023-04-24T15:39:35.873Z,2.47
2023-04-24T15:42:03.947Z,2.10
2023-04-24T15:44:31.218Z,2.37
2023-04-24T15:46:58.338Z,2.07
2023-04-24T15:49:25.488Z,1.97
2023-04-24T15:51:52.563Z,2.07
2023-04-24T15:54:19.640Z,1.90
2023-04-24T15:56:46.763Z,2.30
2023-04-24T15:59:14.053Z,2.50
2023-04-24T16:01:41.218Z,2.37
2023-04-24T16:04:08.638Z,2.33
2023-04-24T16:06:35.949Z,2.17
2023-04-24T16:09:03.770Z,2.03
2023-04-24T16:11:32.908Z,2.03
2023-04-24T16:14:00.265Z,2.67
2023-04-24T16:16:28.375Z,2.20
2023-04-24T16:18:55.604Z,2.30
2023-04-24T16:21:22.873Z,2.90
2023-04-24T16:23:50.004Z,2.20
2023-04-24T16:26:17.126Z,2.60
2023-04-24T16:28:44.301Z,2.63
2023-04-24T16:31:11.489Z,2.40
2023-04-24T16:33:39.833Z,2.80
2023-04-24T16:36:08.835Z,3.37
2023-04-24T16:38:36.377Z,2.70
2023-04-24T16:41:03.529Z,2.77
2023-04-24T16:43:30.807Z,3.20
2023-04-24T16:46:00.331Z,2.83
2023-04-24T16:48:27.552Z,2.80
2023-04-24T16:50:55.208Z,2.70
2023-04-24T16:53:22.336Z,3.20
2023-04-24T16:55:51.234Z,2.87
2023-04-24T16:58:18.900Z,2.50
2023-04-24T17:00:47.145Z,2.80
2023-04-24T17:05:59.226Z,2.53
2023-04-24T17:08:26.405Z,3.13
2023-04-24T17:10:53.805Z,3.27
2023-04-24T17:13:20.942Z,2.60
2023-04-24T17:15:48.063Z,2.87
2023-04-24T17:18:15.646Z,3.00
2023-04-24T17:20:42.844Z,3.63
2023-04-24T17:23:11.997Z,2.70
2023-04-24T17:25:39.147Z,2.77
2023-04-24T17:28:16.040Z,3.20
2023-04-24T17:30:43.139Z,3.30
2023-04-24T17:33:10.390Z,3.60
2023-04-24T17:35:37.813Z,2.80
2023-04-24T17:38:05.176Z,2.70
2023-04-24T17:40:32.412Z,3.70
2023-04-24T17:42:59.526Z,3.13
2023-04-24T17:45:26.651Z,2.77
2023-04-24T17:47:54.600Z,3.23
2023-04-24T17:50:21.726Z,3.30
2023-04-24T17:52:50.402Z,3.00
2023-04-24T17:55:17.664Z,3.23
2023-04-24T17:57:44.811Z,2.70
2023-04-24T18:00:12.294Z,3.23
2023-04-24T18:02:39.694Z,3.00
2023-04-24T18:05:07.539Z,3.47
2023-04-24T18:07:35.099Z,3.13
2023-04-24T18:10:02.481Z,3.43
2023-04-24T18:12:29.569Z,3.40
2023-04-24T18:15:06.565Z,3.03
2023-04-24T18:17:41.499Z,3.47
2023-04-24T18:20:09.102Z,3.67
2023-04-24T18:22:37.726Z,3.73
2023-04-24T18:25:05.138Z,3.10
2023-04-24T18:27:32.316Z,3.23
2023-04-24T18:30:00.206Z,3.80
2023-04-24T18:32:28.259Z,3.63
2023-04-24T18:34:55.773Z,3.50
2023-04-24T18:37:22.880Z,3.53
2023-04-24T18:39:50.587Z,3.40
2023-04-24T18:42:20.890Z,3.80
2023-04-24T18:44:48.026Z,3.77
2023-04-24T18:47:15.108Z,6.73
2023-04-24T18:49:42.192Z,4.20
2023-04-24T18:52:09.263Z,3.77
2023-04-24T18:54:36.376Z,3.67
2023-04-24T18:57:03.459Z,3.23
2023-04-24T18:59:30.521Z,3.17
2023-04-24T19:01:58.075Z,3.13
2023-04-24T19:04:25.399Z,3.93
2023-04-24T19:06:52.569Z,4.20
2023-04-24T19:09:21.237Z,3.43
2023-04-24T19:11:49.983Z,3.73
2023-04-24T19:14:17.289Z,7.83
2023-04-24T19:16:44.606Z,18.20
2023-04-24T19:19:12.251Z,4.90
2023-04-24T19:21:39.326Z,3.77
2023-04-24T19:24:07.201Z,3.70
2023-04-24T19:26:34.253Z,4.77
2023-04-24T19:29:02.263Z,3.93
2023-04-24T19:31:29.689Z,4.00
2023-04-24T19:33:57.369Z,3.20
2023-04-24T19:36:24.736Z,3.83
2023-04-24T19:38:52.144Z,3.57
2023-04-24T19:41:19.315Z,4.17
2023-04-24T19:43:48.235Z,3.87
2023-04-24T19:46:15.471Z,4.23
2023-04-24T19:48:42.582Z,4.67
2023-04-24T19:51:09.832Z,3.77
2023-04-24T19:53:36.933Z,4.93
2023-04-24T19:56:04.021Z,4.37
2023-04-24T19:58:31.483Z,4.87
2023-04-24T20:00:58.765Z,4.80
2023-04-24T20:03:33.373Z,5.07
2023-04-24T20:06:01.656Z,5.23
2023-04-24T20:08:28.877Z,4.93
2023-04-24T20:10:57.854Z,4.90
2023-04-24T20:13:29.813Z,6.90
2023-04-24T20:15:57.092Z,4.10
2023-04-24T20:18:24.196Z,4.87
2023-04-24T20:20:55.750Z,5.50
2023-04-24T20:23:24.014Z,5.10
2023-04-24T20:25:57.665Z,4.97
2023-04-24T20:28:26.186Z,4.90
2023-04-24T20:30:53.866Z,5.20
2023-04-24T20:33:40.573Z,5.07
2023-04-24T20:36:09.489Z,4.43
2023-04-24T20:38:37.112Z,4.70
2023-04-24T20:41:04.657Z,4.50
2023-04-24T20:43:31.772Z,5.63
2023-04-24T20:45:59.154Z,6.23
2023-04-24T20:48:26.955Z,5.40
2023-04-24T20:50:54.128Z,5.60
2023-04-24T20:53:21.785Z,5.17
2023-04-24T20:55:48.931Z,4.90
2023-04-24T20:58:18.214Z,4.90
2023-04-24T21:00:47.105Z,5.50
2023-04-24T21:03:14.356Z,5.47
2023-04-24T21:05:41.463Z,4.77
2023-04-24T21:08:08.567Z,6.20
2023-04-24T21:10:35.774Z,5.43
2023-04-24T21:13:05.630Z,5.60
2023-04-24T21:15:33.840Z,5.63
2023-04-24T21:18:01.176Z,5.43
2023-04-24T21:23:04.164Z,5.60
2023-04-24T21:25:57.199Z,5.77
2023-04-24T21:28:25.231Z,5.23
2023-04-24T21:30:52.553Z,5.30
2023-04-24T21:33:19.682Z,5.20
2023-04-24T21:35:46.840Z,4.57
2023-04-24T21:38:13.975Z,4.63
2023-04-24T21:40:42.360Z,5.60
2023-04-24T21:43:09.806Z,6.13
2023-04-24T21:45:37.361Z,5.77
2023-04-24T21:48:04.602Z,5.60
2023-04-24T21:50:31.685Z,5.80
2023-04-24T21:52:58.750Z,5.20
2023-04-24T21:55:26.890Z,5.73
2023-04-24T21:57:54.091Z,6.53
2023-04-24T22:00:21.578Z,5.40
2023-04-24T22:02:48.852Z,5.50
2023-04-24T22:05:17.794Z,5.80
2023-04-24T22:07:47.150Z,5.73
2023-04-24T22:10:17.109Z,5.27
2023-04-24T22:12:44.772Z,5.67
2023-04-24T22:15:11.968Z,6.23
2023-04-24T22:17:39.493Z,5.57
2023-04-24T22:20:07.337Z,5.77
2023-04-24T22:22:34.992Z,7.00
2023-04-24T22:25:02.125Z,6.07
2023-04-24T22:27:29.234Z,6.67
2023-04-24T22:29:56.472Z,6.07
2023-04-24T22:32:23.809Z,6.97
2023-04-24T22:34:51.294Z,5.50
2023-04-24T22:37:18.490Z,5.57
2023-04-24T22:39:45.837Z,6.63
2023-04-24T22:42:13.004Z,6.17
2023-04-24T22:44:40.145Z,6.33
2023-04-24T22:47:08.485Z,5.50
2023-04-24T22:49:35.992Z,6.30
2023-04-24T22:52:05.249Z,5.90
2023-04-24T22:54:33.496Z,6.47
2023-04-24T22:57:00.963Z,7.10
2023-04-24T22:59:30.154Z,5.87
2023-04-24T23:01:59.275Z,7.13
2023-04-24T23:04:26.578Z,7.63
2023-04-24T23:06:54.044Z,6.07
2023-04-24T23:09:21.213Z,5.70
2023-04-24T23:11:48.568Z,5.67
2023-04-24T23:14:17.219Z,6.33
2023-04-24T23:16:46.069Z,6.40
2023-04-24T23:19:13.444Z,6.00
2023-04-24T23:21:41.370Z,6.27
2023-04-24T23:24:08.463Z,5.30
2023-04-24T23:26:37.098Z,5.57
2023-04-24T23:29:04.309Z,6.27
2023-04-24T23:31:31.552Z,6.30
2023-04-24T23:34:00.512Z,6.07
2023-04-24T23:36:28.083Z,5.50
2023-04-24T23:38:55.525Z,6.47
2023-04-24T23:41:22.676Z,6.23
2023-04-24T23:43:50.174Z,6.07
2023-04-24T23:46:18.064Z,6.17
2023-04-24T23:48:47.533Z,5.90
2023-04-24T23:51:14.793Z,6.90
2023-04-24T23:53:42.015Z,6.70
2023-04-24T23:56:09.112Z,5.90
2023-04-24T23:58:36.794Z,5.50
